Airfield :
LOGIN :

Register | Disclaimer

   EN    FR    IT 

 










Legend :    VFR   Marginal VFR   IFR   Intensive IFR   Very Intensive IFR
Visi :
Ceiling :
>= 8 km
>= 3000ft
5 to 8 km
1000 to 3000 ft
1500m to 5 km
500 to 1000 ft
800 to 1500m
200 to 500 ft
< 800m
< 200 ft
Symbols :   Thunderstorms  Fog  Heavy snow  Heavy precipitations  Wind > 20 kt
SIGMETs :     Misc.  Thunderstorms  Icing  Turbulence  Mountain Waves  Volcanic Ashes






- Airport Elevation : 56 ft
- IATA code : BZR


LFMU - Beziers / Vias

CURRENT METAR :
  • 052100Z AUTO 32014KT CAVOK 10/M00 Q1031 NOSIG

EXPIRED METARs :
  • 052030Z AUTO 32013KT CAVOK 10/M00 Q1031 NOSIG
  • 052000Z AUTO 32012KT CAVOK 10/00 Q1031 NOSIG
  • 051930Z AUTO 32014KT CAVOK 10/01 Q1031 NOSIG
  • 051900Z AUTO 33018KT CAVOK 10/02 Q1031 NOSIG
  • 051830Z AUTO 33015KT 9999 FEW048 10/02 Q1031 NOSIG
  • 051800Z AUTO 33013KT CAVOK 11/02 Q1031 NOSIG

TAF TAF LFMU
Valid from the 05 at 15:00 until the 06 at 15:00 UTC


051400Z 0515/0615 31015KT CAVOK
TEMPO 0515/0518 33015G25KT
BECMG 0521/0524 32012KT
TEMPO 0603/0605 -RA SCT020 BKN040
TEMPO 0605/0609 RA BKN010 BKN025
BECMG 0609/0612 VRB06KT NSC
ATIS : +33 4 67 90 88 88



MET'MAP, your aeronautical weather chart ! - Copyright ORBIFLY December 2007 - Disclaimer

ORBIFLY MET'MAP TEAM :

Programming & Development : Alexandra Zaïnal
Original concept : Baudouin d'Aumeries
Technical & hardware support : Manuel Goepfert
Assistance : Marc-Olivier Méhu




SOURCES & CREDITS :

   NOAA